sensor_id;sensor_type;location;lat;lon;timestamp;temperature;humidity
56336;DHT22;42241;53.510;10.170;2022-07-15T00:01:51;14.40;99.90
56336;DHT22;42241;53.510;10.170;2022-07-15T00:04:16;14.40;99.90
56336;DHT22;42241;53.510;10.170;2022-07-15T00:06:42;14.30;99.90
56336;DHT22;42241;53.510;10.170;2022-07-15T00:09:07;14.30;99.90
56336;DHT22;42241;53.510;10.170;2022-07-15T00:11:33;14.30;99.90
56336;DHT22;42241;53.510;10.170;2022-07-15T00:13:59;14.30;99.90
56336;DHT22;42241;53.510;10.170;2022-07-15T00:16:24;14.40;99.90
56336;DHT22;42241;53.510;10.170;2022-07-15T00:18:50;14.40;99.90
56336;DHT22;42241;53.510;10.170;2022-07-15T00:21:16;14.60;99.90
56336;DHT22;42241;53.510;10.170;2022-07-15T00:23:41;14.60;99.90
56336;DHT22;42241;53.510;10.170;2022-07-15T00:26:07;14.70;99.90
56336;DHT22;42241;53.510;10.170;2022-07-15T00:28:32;14.70;99.90
56336;DHT22;42241;53.510;10.170;2022-07-15T00:30:58;14.80;99.90
56336;DHT22;42241;53.510;10.170;2022-07-15T00:33:24;14.90;99.90
56336;DHT22;42241;53.510;10.170;2022-07-15T00:35:49;14.90;99.90
56336;DHT22;42241;53.510;10.170;2022-07-15T00:38:15;14.80;99.90
56336;DHT22;42241;53.510;10.170;2022-07-15T00:40:41;14.90;99.90
56336;DHT22;42241;53.510;10.170;2022-07-15T00:43:07;14.90;99.90
56336;DHT22;42241;53.510;10.170;2022-07-15T00:45:33;14.90;99.90
56336;DHT22;42241;53.510;10.170;2022-07-15T00:47:58;14.90;99.90
56336;DHT22;42241;53.510;10.170;2022-07-15T00:50:25;14.90;99.90
56336;DHT22;42241;53.510;10.170;2022-07-15T00:52:55;14.90;99.90
56336;DHT22;42241;53.510;10.170;2022-07-15T00:55:21;14.80;99.90
56336;DHT22;42241;53.510;10.170;2022-07-15T00:57:47;14.80;99.90
56336;DHT22;42241;53.510;10.170;2022-07-15T01:00:14;14.70;99.90
56336;DHT22;42241;53.510;10.170;2022-07-15T01:02:40;14.70;99.90
56336;DHT22;42241;53.510;10.170;2022-07-15T01:05:09;14.60;99.90
56336;DHT22;42241;53.510;10.170;2022-07-15T01:07:36;14.50;99.90
56336;DHT22;42241;53.510;10.170;2022-07-15T01:10:02;14.50;99.90
56336;DHT22;42241;53.510;10.170;2022-07-15T01:12:27;14.50;99.90
56336;DHT22;42241;53.510;10.170;2022-07-15T01:14:53;14.40;99.90
56336;DHT22;42241;53.510;10.170;2022-07-15T01:17:18;14.40;99.90
56336;DHT22;42241;53.510;10.170;2022-07-15T01:19:44;14.40;99.90
56336;DHT22;42241;53.510;10.170;2022-07-15T01:22:09;14.40;99.90
56336;DHT22;42241;53.510;10.170;2022-07-15T01:24:35;14.40;99.90
56336;DHT22;42241;53.510;10.170;2022-07-15T01:27:01;14.50;99.90
56336;DHT22;42241;53.510;10.170;2022-07-15T01:29:27;14.60;99.90
56336;DHT22;42241;53.510;10.170;2022-07-15T01:31:55;14.60;99.90
56336;DHT22;42241;53.510;10.170;2022-07-15T01:34:21;14.60;99.90
56336;DHT22;42241;53.510;10.170;2022-07-15T01:36:46;14.60;99.90
56336;DHT22;42241;53.510;10.170;2022-07-15T01:39:12;14.60;99.90
56336;DHT22;42241;53.510;10.170;2022-07-15T01:41:37;14.60;99.90
56336;DHT22;42241;53.510;10.170;2022-07-15T01:44:03;14.60;99.90
56336;DHT22;42241;53.510;10.170;2022-07-15T01:46:29;14.70;99.90
56336;DHT22;42241;53.510;10.170;2022-07-15T01:48:54;14.70;99.90
56336;DHT22;42241;53.510;10.170;2022-07-15T01:51:39;14.70;99.90
56336;DHT22;42241;53.510;10.170;2022-07-15T01:54:05;14.70;99.90
56336;DHT22;42241;53.510;10.170;2022-07-15T01:56:30;14.70;99.90
56336;DHT22;42241;53.510;10.170;2022-07-15T01:58:56;14.70;99.90
56336;DHT22;42241;53.510;10.170;2022-07-15T02:01:24;14.70;99.90
56336;DHT22;42241;53.510;10.170;2022-07-15T02:03:49;14.60;99.90
56336;DHT22;42241;53.510;10.170;2022-07-15T02:06:15;14.60;99.90
56336;DHT22;42241;53.510;10.170;2022-07-15T02:08:41;14.60;99.90
56336;DHT22;42241;53.510;10.170;2022-07-15T02:11:07;14.60;99.90
56336;DHT22;42241;53.510;10.170;2022-07-15T02:13:32;14.50;99.90
56336;DHT22;42241;53.510;10.170;2022-07-15T02:15:58;14.60;99.90
56336;DHT22;42241;53.510;10.170;2022-07-15T02:18:24;14.60;99.90
56336;DHT22;42241;53.510;10.170;2022-07-15T02:20:49;14.50;99.90
56336;DHT22;42241;53.510;10.170;2022-07-15T02:23:15;14.60;99.90
56336;DHT22;42241;53.510;10.170;2022-07-15T02:25:41;14.60;99.90
56336;DHT22;42241;53.510;10.170;2022-07-15T02:28:07;14.50;99.90
56336;DHT22;42241;53.510;10.170;2022-07-15T02:30:34;14.40;99.90
56336;DHT22;42241;53.510;10.170;2022-07-15T02:33:00;14.30;99.90
56336;DHT22;42241;53.510;10.170;2022-07-15T02:35:25;14.20;99.90
56336;DHT22;42241;53.510;10.170;2022-07-15T02:37:51;14.20;99.90
56336;DHT22;42241;53.510;10.170;2022-07-15T02:40:17;14.10;99.90
56336;DHT22;42241;53.510;10.170;2022-07-15T02:42:52;14.10;99.90
56336;DHT22;42241;53.510;10.170;2022-07-15T02:45:18;14.00;99.90
56336;DHT22;42241;53.510;10.170;2022-07-15T02:47:44;14.00;99.90
56336;DHT22;42241;53.510;10.170;2022-07-15T02:50:10;14.00;99.90
56336;DHT22;42241;53.510;10.170;2022-07-15T02:52:36;14.00;99.90
56336;DHT22;42241;53.510;10.170;2022-07-15T02:55:01;14.00;99.90
56336;DHT22;42241;53.510;10.170;2022-07-15T02:57:27;14.10;99.90
56336;DHT22;42241;53.510;10.170;2022-07-15T02:59:53;14.10;99.90
56336;DHT22;42241;53.510;10.170;2022-07-15T03:02:18;14.10;99.90
56336;DHT22;42241;53.510;10.170;2022-07-15T03:04:44;14.10;99.90
56336;DHT22;42241;53.510;10.170;2022-07-15T03:07:10;14.20;99.90
56336;DHT22;42241;53.510;10.170;2022-07-15T03:09:36;14.20;99.90
56336;DHT22;42241;53.510;10.170;2022-07-15T03:12:02;14.20;99.90
56336;DHT22;42241;53.510;10.170;2022-07-15T03:14:27;14.20;99.90
56336;DHT22;42241;53.510;10.170;2022-07-15T03:16:53;14.30;99.90
56336;DHT22;42241;53.510;10.170;2022-07-15T03:19:18;14.30;99.90
56336;DHT22;42241;53.510;10.170;2022-07-15T03:21:46;14.30;99.90
56336;DHT22;42241;53.510;10.170;2022-07-15T03:24:11;14.20;99.90
56336;DHT22;42241;53.510;10.170;2022-07-15T03:26:38;14.20;99.90
56336;DHT22;42241;53.510;10.170;2022-07-15T03:29:03;14.20;99.90
56336;DHT22;42241;53.510;10.170;2022-07-15T03:31:30;14.20;99.90
56336;DHT22;42241;53.510;10.170;2022-07-15T03:33:56;14.20;99.90
56336;DHT22;42241;53.510;10.170;2022-07-15T03:36:22;14.20;99.90
56336;DHT22;42241;53.510;10.170;2022-07-15T03:38:48;14.20;99.90
56336;DHT22;42241;53.510;10.170;2022-07-15T03:41:20;14.10;99.90
56336;DHT22;42241;53.510;10.170;2022-07-15T03:43:45;14.20;99.90
56336;DHT22;42241;53.510;10.170;2022-07-15T03:46:11;14.10;99.90
56336;DHT22;42241;53.510;10.170;2022-07-15T03:48:37;14.20;99.90
56336;DHT22;42241;53.510;10.170;2022-07-15T03:51:02;14.20;99.90
56336;DHT22;42241;53.510;10.170;2022-07-15T03:53:28;14.20;99.90
56336;DHT22;42241;53.510;10.170;2022-07-15T03:55:54;14.20;99.90
56336;DHT22;42241;53.510;10.170;2022-07-15T03:58:19;14.20;99.90
56336;DHT22;42241;53.510;10.170;2022-07-15T04:00:45;14.30;99.90
56336;DHT22;42241;53.510;10.170;2022-07-15T04:03:10;14.30;99.90
56336;DHT22;42241;53.510;10.170;2022-07-15T04:05:36;14.30;99.90
56336;DHT22;42241;53.510;10.170;2022-07-15T04:08:04;14.40;99.90
56336;DHT22;42241;53.510;10.170;2022-07-15T04:10:29;14.30;99.90
56336;DHT22;42241;53.510;10.170;2022-07-15T04:12:55;14.30;99.90
56336;DHT22;42241;53.510;10.170;2022-07-15T04:15:20;14.30;99.90
56336;DHT22;42241;53.510;10.170;2022-07-15T04:18:04;14.30;99.90
56336;DHT22;42241;53.510;10.170;2022-07-15T04:20:29;14.30;99.90
56336;DHT22;42241;53.510;10.170;2022-07-15T04:22:55;14.40;99.90
56336;DHT22;42241;53.510;10.170;2022-07-15T04:25:20;14.40;99.90
56336;DHT22;42241;53.510;10.170;2022-07-15T04:27:47;14.50;99.90
56336;DHT22;42241;53.510;10.170;2022-07-15T04:30:15;14.50;99.90
56336;DHT22;42241;53.510;10.170;2022-07-15T04:32:43;14.50;99.90
56336;DHT22;42241;53.510;10.170;2022-07-15T04:35:09;14.50;99.90
56336;DHT22;42241;53.510;10.170;2022-07-15T04:37:34;14.60;99.90
56336;DHT22;42241;53.510;10.170;2022-07-15T04:40:00;14.60;99.90
56336;DHT22;42241;53.510;10.170;2022-07-15T04:42:25;14.60;99.90
56336;DHT22;42241;53.510;10.170;2022-07-15T04:44:52;14.70;99.90
56336;DHT22;42241;53.510;10.170;2022-07-15T04:47:17;14.70;99.90
56336;DHT22;42241;53.510;10.170;2022-07-15T04:49:43;14.70;99.90
56336;DHT22;42241;53.510;10.170;2022-07-15T04:52:27;14.80;99.90
56336;DHT22;42241;53.510;10.170;2022-07-15T04:54:55;14.80;99.90
56336;DHT22;42241;53.510;10.170;2022-07-15T04:57:21;14.80;99.90
56336;DHT22;42241;53.510;10.170;2022-07-15T04:59:47;14.70;99.90
56336;DHT22;42241;53.510;10.170;2022-07-15T05:02:12;14.60;99.90
56336;DHT22;42241;53.510;10.170;2022-07-15T05:04:38;14.60;99.90
56336;DHT22;42241;53.510;10.170;2022-07-15T05:07:04;14.60;99.90
56336;DHT22;42241;53.510;10.170;2022-07-15T05:09:30;14.60;99.90
56336;DHT22;42241;53.510;10.170;2022-07-15T05:11:55;14.60;99.90
56336;DHT22;42241;53.510;10.170;2022-07-15T05:14:21;14.60;99.90
56336;DHT22;42241;53.510;10.170;2022-07-15T05:16:46;14.60;99.90
56336;DHT22;42241;53.510;10.170;2022-07-15T05:19:12;14.70;99.90
56336;DHT22;42241;53.510;10.170;2022-07-15T05:21:38;14.80;99.90
56336;DHT22;42241;53.510;10.170;2022-07-15T05:24:03;14.90;99.90
56336;DHT22;42241;53.510;10.170;2022-07-15T05:26:29;15.00;99.90
56336;DHT22;42241;53.510;10.170;2022-07-15T05:28:54;15.10;99.90
56336;DHT22;42241;53.510;10.170;2022-07-15T05:31:20;15.10;99.90
56336;DHT22;42241;53.510;10.170;2022-07-15T05:33:46;15.10;99.90
56336;DHT22;42241;53.510;10.170;2022-07-15T05:36:14;15.10;99.90
56336;DHT22;42241;53.510;10.170;2022-07-15T05:38:41;15.10;99.90
56336;DHT22;42241;53.510;10.170;2022-07-15T05:41:07;15.20;99.90
56336;DHT22;42241;53.510;10.170;2022-07-15T05:43:32;15.30;99.90
56336;DHT22;42241;53.510;10.170;2022-07-15T05:45:58;15.30;99.90
56336;DHT22;42241;53.510;10.170;2022-07-15T05:48:23;15.20;99.90
56336;DHT22;42241;53.510;10.170;2022-07-15T05:50:49;15.00;99.90
56336;DHT22;42241;53.510;10.170;2022-07-15T05:53:15;14.90;99.90
56336;DHT22;42241;53.510;10.170;2022-07-15T05:55:40;14.90;99.90
56336;DHT22;42241;53.510;10.170;2022-07-15T05:58:07;15.00;99.90
56336;DHT22;42241;53.510;10.170;2022-07-15T06:00:32;14.90;99.90
56336;DHT22;42241;53.510;10.170;2022-07-15T06:02:58;15.00;99.90
56336;DHT22;42241;53.510;10.170;2022-07-15T06:05:24;15.00;99.90
56336;DHT22;42241;53.510;10.170;2022-07-15T06:07:49;14.90;99.90
56336;DHT22;42241;53.510;10.170;2022-07-15T06:10:15;14.70;99.90
56336;DHT22;42241;53.510;10.170;2022-07-15T06:12:41;14.60;99.90
56336;DHT22;42241;53.510;10.170;2022-07-15T06:15:06;14.70;99.90
56336;DHT22;42241;53.510;10.170;2022-07-15T06:17:32;14.80;99.90
56336;DHT22;42241;53.510;10.170;2022-07-15T06:19:59;15.10;99.90
56336;DHT22;42241;53.510;10.170;2022-07-15T06:22:24;15.40;99.90
56336;DHT22;42241;53.510;10.170;2022-07-15T06:24:50;15.70;99.90
56336;DHT22;42241;53.510;10.170;2022-07-15T06:27:16;15.90;99.90
56336;DHT22;42241;53.510;10.170;2022-07-15T06:29:41;16.20;99.90
56336;DHT22;42241;53.510;10.170;2022-07-15T06:32:07;16.50;99.90
56336;DHT22;42241;53.510;10.170;2022-07-15T06:34:33;16.70;99.90
56336;DHT22;42241;53.510;10.170;2022-07-15T06:36:59;16.90;99.90
56336;DHT22;42241;53.510;10.170;2022-07-15T06:39:24;17.10;99.90
56336;DHT22;42241;53.510;10.170;2022-07-15T06:41:50;17.20;99.90
56336;DHT22;42241;53.510;10.170;2022-07-15T06:44:15;17.40;99.90
56336;DHT22;42241;53.510;10.170;2022-07-15T06:46:41;17.50;99.90
56336;DHT22;42241;53.510;10.170;2022-07-15T06:49:07;17.50;99.90
56336;DHT22;42241;53.510;10.170;2022-07-15T06:51:33;17.50;99.90
56336;DHT22;42241;53.510;10.170;2022-07-15T06:53:59;17.60;99.90
56336;DHT22;42241;53.510;10.170;2022-07-15T06:56:24;17.70;99.90
56336;DHT22;42241;53.510;10.170;2022-07-15T06:58:50;17.80;99.90
56336;DHT22;42241;53.510;10.170;2022-07-15T07:01:16;17.80;99.90
56336;DHT22;42241;53.510;10.170;2022-07-15T07:03:41;17.70;99.90
56336;DHT22;42241;53.510;10.170;2022-07-15T07:06:07;17.60;99.90
56336;DHT22;42241;53.510;10.170;2022-07-15T07:08:33;17.60;99.90
56336;DHT22;42241;53.510;10.170;2022-07-15T07:10:59;17.30;99.90
56336;DHT22;42241;53.510;10.170;2022-07-15T07:13:24;17.10;99.90
56336;DHT22;42241;53.510;10.170;2022-07-15T07:15:50;17.10;99.90
56336;DHT22;42241;53.510;10.170;2022-07-15T07:18:17;17.00;99.90
56336;DHT22;42241;53.510;10.170;2022-07-15T07:20:43;17.00;99.90
56336;DHT22;42241;53.510;10.170;2022-07-15T07:23:09;17.00;99.90
56336;DHT22;42241;53.510;10.170;2022-07-15T07:25:35;17.00;99.90
56336;DHT22;42241;53.510;10.170;2022-07-15T07:28:00;17.00;99.90
56336;DHT22;42241;53.510;10.170;2022-07-15T07:30:29;16.90;99.90
56336;DHT22;42241;53.510;10.170;2022-07-15T07:32:54;16.90;99.90
56336;DHT22;42241;53.510;10.170;2022-07-15T07:35:20;16.70;99.90
56336;DHT22;42241;53.510;10.170;2022-07-15T07:37:46;16.80;99.90
56336;DHT22;42241;53.510;10.170;2022-07-15T07:40:11;16.90;99.90
56336;DHT22;42241;53.510;10.170;2022-07-15T07:42:37;16.90;99.90
56336;DHT22;42241;53.510;10.170;2022-07-15T07:45:04;16.80;99.90
56336;DHT22;42241;53.510;10.170;2022-07-15T07:47:30;16.60;99.90
56336;DHT22;42241;53.510;10.170;2022-07-15T07:49:57;16.40;99.90
56336;DHT22;42241;53.510;10.170;2022-07-15T07:52:23;16.40;99.90
56336;DHT22;42241;53.510;10.170;2022-07-15T07:54:49;16.40;99.90
56336;DHT22;42241;53.510;10.170;2022-07-15T07:57:15;16.60;99.90
56336;DHT22;42241;53.510;10.170;2022-07-15T07:59:41;16.70;99.90
56336;DHT22;42241;53.510;10.170;2022-07-15T08:02:07;17.00;99.90
56336;DHT22;42241;53.510;10.170;2022-07-15T08:04:32;17.40;99.90
56336;DHT22;42241;53.510;10.170;2022-07-15T08:06:58;17.70;99.90
56336;DHT22;42241;53.510;10.170;2022-07-15T08:09:24;18.10;99.90
56336;DHT22;42241;53.510;10.170;2022-07-15T08:11:50;18.50;99.90
56336;DHT22;42241;53.510;10.170;2022-07-15T08:14:16;18.90;99.90
56336;DHT22;42241;53.510;10.170;2022-07-15T08:16:43;18.90;99.90
56336;DHT22;42241;53.510;10.170;2022-07-15T08:19:29;19.20;99.90
56336;DHT22;42241;53.510;10.170;2022-07-15T08:21:55;18.80;99.90
56336;DHT22;42241;53.510;10.170;2022-07-15T08:24:20;18.30;99.90
56336;DHT22;42241;53.510;10.170;2022-07-15T08:26:46;17.90;99.90
56336;DHT22;42241;53.510;10.170;2022-07-15T08:29:14;17.60;99.90
56336;DHT22;42241;53.510;10.170;2022-07-15T08:31:39;17.30;99.90
56336;DHT22;42241;53.510;10.170;2022-07-15T08:34:05;17.30;99.90
56336;DHT22;42241;53.510;10.170;2022-07-15T08:36:31;17.20;99.90
56336;DHT22;42241;53.510;10.170;2022-07-15T08:38:56;16.90;99.90
56336;DHT22;42241;53.510;10.170;2022-07-15T08:41:22;16.60;99.90
56336;DHT22;42241;53.510;10.170;2022-07-15T08:43:50;16.40;99.90
56336;DHT22;42241;53.510;10.170;2022-07-15T08:46:16;16.50;99.90
56336;DHT22;42241;53.510;10.170;2022-07-15T08:48:48;16.40;99.90
56336;DHT22;42241;53.510;10.170;2022-07-15T08:51:14;16.50;99.90
56336;DHT22;42241;53.510;10.170;2022-07-15T08:53:39;16.80;99.90
56336;DHT22;42241;53.510;10.170;2022-07-15T08:56:05;17.20;99.90
56336;DHT22;42241;53.510;10.170;2022-07-15T08:58:34;17.60;99.90
56336;DHT22;42241;53.510;10.170;2022-07-15T09:01:00;18.50;99.90
56336;DHT22;42241;53.510;10.170;2022-07-15T09:03:25;19.40;99.90
56336;DHT22;42241;53.510;10.170;2022-07-15T09:05:51;20.10;99.90
56336;DHT22;42241;53.510;10.170;2022-07-15T09:08:17;20.70;99.90
56336;DHT22;42241;53.510;10.170;2022-07-15T09:13:27;21.10;99.90
56336;DHT22;42241;53.510;10.170;2022-07-15T09:15:53;21.20;99.90
56336;DHT22;42241;53.510;10.170;2022-07-15T09:18:21;20.50;99.90
56336;DHT22;42241;53.510;10.170;2022-07-15T09:20:47;20.80;99.90
56336;DHT22;42241;53.510;10.170;2022-07-15T09:23:23;21.20;99.90
56336;DHT22;42241;53.510;10.170;2022-07-15T09:25:55;21.30;99.90
56336;DHT22;42241;53.510;10.170;2022-07-15T09:28:21;21.70;99.90
56336;DHT22;42241;53.510;10.170;2022-07-15T09:30:59;22.00;99.90
56336;DHT22;42241;53.510;10.170;2022-07-15T09:33:47;21.60;99.90
56336;DHT22;42241;53.510;10.170;2022-07-15T09:41:10;20.40;99.90
56336;DHT22;42241;53.510;10.170;2022-07-15T09:43:44;19.60;99.90
56336;DHT22;42241;53.510;10.170;2022-07-15T09:46:09;18.90;99.90
56336;DHT22;42241;53.510;10.170;2022-07-15T09:48:38;18.50;99.90
56336;DHT22;42241;53.510;10.170;2022-07-15T09:51:04;18.60;99.90
56336;DHT22;42241;53.510;10.170;2022-07-15T09:53:30;20.20;99.90
56336;DHT22;42241;53.510;10.170;2022-07-15T09:55:58;20.80;99.90
56336;DHT22;42241;53.510;10.170;2022-07-15T09:58:23;21.50;99.90
56336;DHT22;42241;53.510;10.170;2022-07-15T10:00:50;22.40;99.90
56336;DHT22;42241;53.510;10.170;2022-07-15T10:03:18;22.80;99.90
56336;DHT22;42241;53.510;10.170;2022-07-15T10:05:44;23.70;99.90
56336;DHT22;42241;53.510;10.170;2022-07-15T10:08:10;24.10;99.90
56336;DHT22;42241;53.510;10.170;2022-07-15T10:10:38;24.90;98.10
56336;DHT22;42241;53.510;10.170;2022-07-15T10:23:18;28.60;61.30
56336;DHT22;42241;53.510;10.170;2022-07-15T10:25:55;26.20;63.70
56336;DHT22;42241;53.510;10.170;2022-07-15T10:31:23;26.60;66.20
56336;DHT22;42241;53.510;10.170;2022-07-15T10:39:07;29.90;54.70
56336;DHT22;42241;53.510;10.170;2022-07-15T10:41:51;29.70;54.90
56336;DHT22;42241;53.510;10.170;2022-07-15T10:44:17;29.80;53.00
56336;DHT22;42241;53.510;10.170;2022-07-15T10:46:43;27.90;57.00
56336;DHT22;42241;53.510;10.170;2022-07-15T10:54:04;26.80;59.80
56336;DHT22;42241;53.510;10.170;2022-07-15T10:56:30;27.50;57.50
56336;DHT22;42241;53.510;10.170;2022-07-15T11:01:37;26.10;59.20
56336;DHT22;42241;53.510;10.170;2022-07-15T11:06:59;25.70;59.30
56336;DHT22;42241;53.510;10.170;2022-07-15T11:12:04;23.70;65.10
56336;DHT22;42241;53.510;10.170;2022-07-15T11:14:39;24.30;66.60
56336;DHT22;42241;53.510;10.170;2022-07-15T11:17:05;26.90;58.30
56336;DHT22;42241;53.510;10.170;2022-07-15T11:19:31;27.30;59.10
56336;DHT22;42241;53.510;10.170;2022-07-15T11:21:57;28.00;57.10
56336;DHT22;42241;53.510;10.170;2022-07-15T11:24:23;27.60;57.30
56336;DHT22;42241;53.510;10.170;2022-07-15T11:26:50;27.10;58.30
56336;DHT22;42241;53.510;10.170;2022-07-15T11:29:15;27.20;58.70
56336;DHT22;42241;53.510;10.170;2022-07-15T11:31:42;27.10;58.30
56336;DHT22;42241;53.510;10.170;2022-07-15T11:34:07;26.80;59.60
56336;DHT22;42241;53.510;10.170;2022-07-15T11:36:33;26.70;60.30
56336;DHT22;42241;53.510;10.170;2022-07-15T11:38:59;27.10;58.60
56336;DHT22;42241;53.510;10.170;2022-07-15T11:41:25;25.90;60.50
56336;DHT22;42241;53.510;10.170;2022-07-15T11:44:10;24.90;62.90
56336;DHT22;42241;53.510;10.170;2022-07-15T11:46:54;23.70;65.70
56336;DHT22;42241;53.510;10.170;2022-07-15T11:51:52;22.10;71.90
56336;DHT22;42241;53.510;10.170;2022-07-15T11:54:19;21.90;74.40
56336;DHT22;42241;53.510;10.170;2022-07-15T11:56:52;21.90;75.40
56336;DHT22;42241;53.510;10.170;2022-07-15T11:59:17;23.30;74.60
56336;DHT22;42241;53.510;10.170;2022-07-15T12:01:43;25.40;68.00
56336;DHT22;42241;53.510;10.170;2022-07-15T12:04:08;25.20;67.50
56336;DHT22;42241;53.510;10.170;2022-07-15T12:06:35;24.10;68.80
56336;DHT22;42241;53.510;10.170;2022-07-15T12:09:03;23.30;71.40
56336;DHT22;42241;53.510;10.170;2022-07-15T12:11:45;22.40;74.00
56336;DHT22;42241;53.510;10.170;2022-07-15T12:14:18;22.00;77.10
56336;DHT22;42241;53.510;10.170;2022-07-15T12:16:45;21.40;78.70
56336;DHT22;42241;53.510;10.170;2022-07-15T12:19:17;21.30;80.10
56336;DHT22;42241;53.510;10.170;2022-07-15T12:21:44;21.30;82.60
56336;DHT22;42241;53.510;10.170;2022-07-15T12:24:14;21.20;82.60
56336;DHT22;42241;53.510;10.170;2022-07-15T12:26:42;21.10;84.50
56336;DHT22;42241;53.510;10.170;2022-07-15T12:29:10;20.80;86.40
56336;DHT22;42241;53.510;10.170;2022-07-15T12:31:36;20.50;88.90
56336;DHT22;42241;53.510;10.170;2022-07-15T12:34:03;20.40;90.00
56336;DHT22;42241;53.510;10.170;2022-07-15T12:36:29;20.30;91.30
56336;DHT22;42241;53.510;10.170;2022-07-15T12:39:02;20.50;91.70
56336;DHT22;42241;53.510;10.170;2022-07-15T12:41:28;20.70;91.60
56336;DHT22;42241;53.510;10.170;2022-07-15T12:43:55;21.00;91.30
56336;DHT22;42241;53.510;10.170;2022-07-15T12:49:06;21.40;90.40
56336;DHT22;42241;53.510;10.170;2022-07-15T12:51:32;21.30;90.80
56336;DHT22;42241;53.510;10.170;2022-07-15T12:54:05;21.10;91.10
56336;DHT22;42241;53.510;10.170;2022-07-15T12:56:49;21.00;91.80
56336;DHT22;42241;53.510;10.170;2022-07-15T12:59:14;20.80;93.00
56336;DHT22;42241;53.510;10.170;2022-07-15T13:01:42;20.70;93.60
56336;DHT22;42241;53.510;10.170;2022-07-15T13:04:10;20.70;94.60
56336;DHT22;42241;53.510;10.170;2022-07-15T13:06:38;20.70;93.40
56336;DHT22;42241;53.510;10.170;2022-07-15T13:09:03;20.80;93.50
56336;DHT22;42241;53.510;10.170;2022-07-15T13:11:29;21.00;92.90
56336;DHT22;42241;53.510;10.170;2022-07-15T13:13:55;21.30;93.90
56336;DHT22;42241;53.510;10.170;2022-07-15T13:16:20;21.60;93.60
56336;DHT22;42241;53.510;10.170;2022-07-15T13:18:46;21.70;92.00
56336;DHT22;42241;53.510;10.170;2022-07-15T13:21:11;21.50;92.80
56336;DHT22;42241;53.510;10.170;2022-07-15T13:23:37;21.40;93.60
56336;DHT22;42241;53.510;10.170;2022-07-15T13:26:02;21.30;93.80
56336;DHT22;42241;53.510;10.170;2022-07-15T13:28:28;21.30;94.30
56336;DHT22;42241;53.510;10.170;2022-07-15T13:30:54;21.30;94.90
56336;DHT22;42241;53.510;10.170;2022-07-15T13:33:19;21.50;94.70
56336;DHT22;42241;53.510;10.170;2022-07-15T13:35:45;21.60;95.20
56336;DHT22;42241;53.510;10.170;2022-07-15T13:38:11;21.50;95.30
56336;DHT22;42241;53.510;10.170;2022-07-15T13:40:37;21.30;95.20
56336;DHT22;42241;53.510;10.170;2022-07-15T13:43:02;21.10;95.60
56336;DHT22;42241;53.510;10.170;2022-07-15T13:45:28;21.10;96.70
56336;DHT22;42241;53.510;10.170;2022-07-15T13:47:53;20.90;96.30
56336;DHT22;42241;53.510;10.170;2022-07-15T13:50:19;21.20;96.50
56336;DHT22;42241;53.510;10.170;2022-07-15T13:53:03;21.10;95.30
56336;DHT22;42241;53.510;10.170;2022-07-15T13:55:29;21.10;95.30
56336;DHT22;42241;53.510;10.170;2022-07-15T13:57:55;21.20;94.40
56336;DHT22;42241;53.510;10.170;2022-07-15T14:00:22;21.10;94.70
56336;DHT22;42241;53.510;10.170;2022-07-15T14:02:49;20.80;95.20
56336;DHT22;42241;53.510;10.170;2022-07-15T14:05:15;20.90;96.30
56336;DHT22;42241;53.510;10.170;2022-07-15T14:07:40;21.10;96.70
56336;DHT22;42241;53.510;10.170;2022-07-15T14:10:07;21.30;96.20
56336;DHT22;42241;53.510;10.170;2022-07-15T14:12:32;21.40;95.70
56336;DHT22;42241;53.510;10.170;2022-07-15T14:14:58;21.20;95.40
56336;DHT22;42241;53.510;10.170;2022-07-15T14:17:24;20.80;95.80
56336;DHT22;42241;53.510;10.170;2022-07-15T14:19:50;20.70;96.10
56336;DHT22;42241;53.510;10.170;2022-07-15T14:22:15;20.70;96.40
56336;DHT22;42241;53.510;10.170;2022-07-15T14:24:41;20.70;96.50
56336;DHT22;42241;53.510;10.170;2022-07-15T14:27:09;20.80;97.00
56336;DHT22;42241;53.510;10.170;2022-07-15T14:29:35;21.00;95.80
56336;DHT22;42241;53.510;10.170;2022-07-15T14:32:00;21.10;94.70
56336;DHT22;42241;53.510;10.170;2022-07-15T14:34:26;21.00;92.10
56336;DHT22;42241;53.510;10.170;2022-07-15T14:36:51;20.80;92.00
56336;DHT22;42241;53.510;10.170;2022-07-15T14:39:17;20.50;93.10
56336;DHT22;42241;53.510;10.170;2022-07-15T14:41:42;20.30;93.70
56336;DHT22;42241;53.510;10.170;2022-07-15T14:44:08;20.40;93.80
56336;DHT22;42241;53.510;10.170;2022-07-15T14:46:34;20.50;93.40
56336;DHT22;42241;53.510;10.170;2022-07-15T14:48:59;20.50;92.30
56336;DHT22;42241;53.510;10.170;2022-07-15T14:51:25;20.50;92.00
56336;DHT22;42241;53.510;10.170;2022-07-15T14:53:51;20.50;91.90
56336;DHT22;42241;53.510;10.170;2022-07-15T14:56:16;20.60;90.90
56336;DHT22;42241;53.510;10.170;2022-07-15T14:58:42;20.80;89.20
56336;DHT22;42241;53.510;10.170;2022-07-15T15:01:10;20.80;87.10
56336;DHT22;42241;53.510;10.170;2022-07-15T15:03:35;20.70;89.60
56336;DHT22;42241;53.510;10.170;2022-07-15T15:06:01;20.40;90.30
56336;DHT22;42241;53.510;10.170;2022-07-15T15:08:27;20.40;90.70
56336;DHT22;42241;53.510;10.170;2022-07-15T15:10:52;20.20;90.50
56336;DHT22;42241;53.510;10.170;2022-07-15T15:13:18;20.20;91.40
56336;DHT22;42241;53.510;10.170;2022-07-15T15:15:44;20.10;91.60
56336;DHT22;42241;53.510;10.170;2022-07-15T15:18:11;20.10;92.20
56336;DHT22;42241;53.510;10.170;2022-07-15T15:20:40;20.10;92.40
56336;DHT22;42241;53.510;10.170;2022-07-15T15:23:05;20.10;91.60
56336;DHT22;42241;53.510;10.170;2022-07-15T15:25:31;20.20;91.70
56336;DHT22;42241;53.510;10.170;2022-07-15T15:28:15;20.30;91.90
56336;DHT22;42241;53.510;10.170;2022-07-15T15:30:40;20.30;92.10
56336;DHT22;42241;53.510;10.170;2022-07-15T15:33:06;20.40;92.00
56336;DHT22;42241;53.510;10.170;2022-07-15T15:35:31;20.10;91.30
56336;DHT22;42241;53.510;10.170;2022-07-15T15:37:57;20.00;91.70
56336;DHT22;42241;53.510;10.170;2022-07-15T15:40:22;19.70;92.00
56336;DHT22;42241;53.510;10.170;2022-07-15T15:42:48;19.70;92.60
56336;DHT22;42241;53.510;10.170;2022-07-15T15:45:14;19.80;92.20
56336;DHT22;42241;53.510;10.170;2022-07-15T15:47:39;19.80;92.10
56336;DHT22;42241;53.510;10.170;2022-07-15T15:50:07;19.60;92.30
56336;DHT22;42241;53.510;10.170;2022-07-15T15:52:33;19.70;92.40
56336;DHT22;42241;53.510;10.170;2022-07-15T15:54:59;19.70;93.20
56336;DHT22;42241;53.510;10.170;2022-07-15T15:57:24;19.70;93.20